sensor_id;sensor_type;location;lat;lon;timestamp;temperature;humidity
41644;DHT22;44236;48.098;11.582;2022-07-29T00:01:49;26.70;47.50
41644;DHT22;44236;48.098;11.582;2022-07-29T00:04:15;26.70;47.40
41644;DHT22;44236;48.098;11.582;2022-07-29T00:06:41;26.70;47.40
41644;DHT22;44236;48.098;11.582;2022-07-29T00:09:07;26.60;47.30
41644;DHT22;44236;48.098;11.582;2022-07-29T00:11:32;26.70;47.40
41644;DHT22;44236;48.098;11.582;2022-07-29T00:13:58;26.60;47.40
41644;DHT22;44236;48.098;11.582;2022-07-29T00:16:24;26.60;47.40
41644;DHT22;44236;48.098;11.582;2022-07-29T00:18:49;26.60;47.40
41644;DHT22;44236;48.098;11.582;2022-07-29T00:21:15;26.60;47.40
41644;DHT22;44236;48.098;11.582;2022-07-29T00:23:41;26.60;47.40
41644;DHT22;44236;48.098;11.582;2022-07-29T00:26:07;26.60;47.40
41644;DHT22;44236;48.098;11.582;2022-07-29T00:28:33;26.60;47.40
41644;DHT22;44236;48.098;11.582;2022-07-29T00:30:58;26.60;47.50
41644;DHT22;44236;48.098;11.582;2022-07-29T00:33:24;26.60;47.50
41644;DHT22;44236;48.098;11.582;2022-07-29T00:35:50;26.60;47.50
41644;DHT22;44236;48.098;11.582;2022-07-29T00:38:17;26.50;47.50
41644;DHT22;44236;48.098;11.582;2022-07-29T00:40:44;26.50;47.50
41644;DHT22;44236;48.098;11.582;2022-07-29T00:43:11;26.60;47.60
41644;DHT22;44236;48.098;11.582;2022-07-29T00:45:36;26.50;47.60
41644;DHT22;44236;48.098;11.582;2022-07-29T00:48:03;26.50;47.60
41644;DHT22;44236;48.098;11.582;2022-07-29T00:50:30;26.50;47.60
41644;DHT22;44236;48.098;11.582;2022-07-29T00:52:56;26.50;47.60
41644;DHT22;44236;48.098;11.582;2022-07-29T00:55:22;26.50;47.60
41644;DHT22;44236;48.098;11.582;2022-07-29T00:57:48;26.50;47.50
41644;DHT22;44236;48.098;11.582;2022-07-29T01:00:21;26.50;47.40
41644;DHT22;44236;48.098;11.582;2022-07-29T01:02:47;26.50;47.40
41644;DHT22;44236;48.098;11.582;2022-07-29T01:05:15;26.50;47.40
41644;DHT22;44236;48.098;11.582;2022-07-29T01:07:42;26.50;47.40
41644;DHT22;44236;48.098;11.582;2022-07-29T01:10:09;26.50;47.40
41644;DHT22;44236;48.098;11.582;2022-07-29T01:12:37;26.40;47.30
41644;DHT22;44236;48.098;11.582;2022-07-29T01:15:05;26.40;47.30
41644;DHT22;44236;48.098;11.582;2022-07-29T01:20:39;26.40;47.30
41644;DHT22;44236;48.098;11.582;2022-07-29T01:31:04;26.40;47.20
41644;DHT22;44236;48.098;11.582;2022-07-29T01:33:35;26.40;47.20
41644;DHT22;44236;48.098;11.582;2022-07-29T01:39:25;26.40;47.10
41644;DHT22;44236;48.098;11.582;2022-07-29T01:42:20;26.30;47.00
41644;DHT22;44236;48.098;11.582;2022-07-29T01:47:37;26.30;47.00
41644;DHT22;44236;48.098;11.582;2022-07-29T01:50:07;26.30;47.00
41644;DHT22;44236;48.098;11.582;2022-07-29T01:52:49;26.30;46.90
41644;DHT22;44236;48.098;11.582;2022-07-29T01:55:19;26.30;46.90
41644;DHT22;44236;48.098;11.582;2022-07-29T01:57:47;26.30;46.90
41644;DHT22;44236;48.098;11.582;2022-07-29T02:00:14;26.30;46.90
41644;DHT22;44236;48.098;11.582;2022-07-29T02:02:42;26.30;46.90
41644;DHT22;44236;48.098;11.582;2022-07-29T02:05:11;26.30;46.90
41644;DHT22;44236;48.098;11.582;2022-07-29T02:07:38;26.20;46.80
41644;DHT22;44236;48.098;11.582;2022-07-29T02:10:06;26.30;46.90
41644;DHT22;44236;48.098;11.582;2022-07-29T02:12:33;26.30;46.90
41644;DHT22;44236;48.098;11.582;2022-07-29T02:15:02;26.20;46.80
41644;DHT22;44236;48.098;11.582;2022-07-29T02:17:33;26.20;46.90
41644;DHT22;44236;48.098;11.582;2022-07-29T02:20:02;26.20;46.90
41644;DHT22;44236;48.098;11.582;2022-07-29T02:22:30;26.20;46.90
41644;DHT22;44236;48.098;11.582;2022-07-29T02:24:57;26.20;46.90
41644;DHT22;44236;48.098;11.582;2022-07-29T02:27:24;26.20;46.90
41644;DHT22;44236;48.098;11.582;2022-07-29T02:29:53;26.20;47.00
41644;DHT22;44236;48.098;11.582;2022-07-29T02:32:21;26.20;47.00
41644;DHT22;44236;48.098;11.582;2022-07-29T02:34:49;26.20;47.00
41644;DHT22;44236;48.098;11.582;2022-07-29T02:37:16;26.20;47.60
41644;DHT22;44236;48.098;11.582;2022-07-29T02:39:44;26.20;47.10
41644;DHT22;44236;48.098;11.582;2022-07-29T02:42:12;26.10;47.00
41644;DHT22;44236;48.098;11.582;2022-07-29T02:44:39;26.10;47.00
41644;DHT22;44236;48.098;11.582;2022-07-29T02:47:13;26.10;47.10
41644;DHT22;44236;48.098;11.582;2022-07-29T02:52:24;26.10;47.10
41644;DHT22;44236;48.098;11.582;2022-07-29T02:55:00;26.10;47.10
41644;DHT22;44236;48.098;11.582;2022-07-29T02:58:15;26.10;47.10
41644;DHT22;44236;48.098;11.582;2022-07-29T03:00:23;26.10;47.10
41644;DHT22;44236;48.098;11.582;2022-07-29T03:02:54;26.10;47.20
41644;DHT22;44236;48.098;11.582;2022-07-29T03:05:22;26.00;47.10
41644;DHT22;44236;48.098;11.582;2022-07-29T03:08:00;26.00;47.20
41644;DHT22;44236;48.098;11.582;2022-07-29T03:10:27;26.00;47.20
41644;DHT22;44236;48.098;11.582;2022-07-29T03:12:55;26.00;47.30
41644;DHT22;44236;48.098;11.582;2022-07-29T03:15:21;26.00;47.30
41644;DHT22;44236;48.098;11.582;2022-07-29T03:17:48;26.00;47.40
41644;DHT22;44236;48.098;11.582;2022-07-29T03:20:14;26.00;47.40
41644;DHT22;44236;48.098;11.582;2022-07-29T03:22:42;26.00;47.40
41644;DHT22;44236;48.098;11.582;2022-07-29T03:25:15;26.00;47.40
41644;DHT22;44236;48.098;11.582;2022-07-29T03:27:42;26.00;47.40
41644;DHT22;44236;48.098;11.582;2022-07-29T03:30:09;26.00;47.40
41644;DHT22;44236;48.098;11.582;2022-07-29T03:32:35;26.00;47.40
41644;DHT22;44236;48.098;11.582;2022-07-29T03:35:01;26.00;47.40
41644;DHT22;44236;48.098;11.582;2022-07-29T03:37:27;26.00;47.50
41644;DHT22;44236;48.098;11.582;2022-07-29T03:39:55;26.00;47.50
41644;DHT22;44236;48.098;11.582;2022-07-29T03:42:24;26.00;47.60
41644;DHT22;44236;48.098;11.582;2022-07-29T03:44:52;25.90;47.60
41644;DHT22;44236;48.098;11.582;2022-07-29T03:47:22;26.00;47.60
41644;DHT22;44236;48.098;11.582;2022-07-29T03:49:50;25.90;47.60
41644;DHT22;44236;48.098;11.582;2022-07-29T03:52:17;25.90;47.60
41644;DHT22;44236;48.098;11.582;2022-07-29T03:54:44;25.90;47.70
41644;DHT22;44236;48.098;11.582;2022-07-29T03:57:11;25.90;47.70
41644;DHT22;44236;48.098;11.582;2022-07-29T03:59:37;25.90;47.70
41644;DHT22;44236;48.098;11.582;2022-07-29T04:02:09;25.90;47.80
41644;DHT22;44236;48.098;11.582;2022-07-29T04:04:35;25.90;47.80
41644;DHT22;44236;48.098;11.582;2022-07-29T04:07:02;25.90;47.80
41644;DHT22;44236;48.098;11.582;2022-07-29T04:09:28;25.90;47.80
41644;DHT22;44236;48.098;11.582;2022-07-29T04:11:53;25.90;47.90
41644;DHT22;44236;48.098;11.582;2022-07-29T04:14:19;25.90;47.90
41644;DHT22;44236;48.098;11.582;2022-07-29T04:16:46;25.90;47.90
41644;DHT22;44236;48.098;11.582;2022-07-29T04:19:11;25.90;47.90
41644;DHT22;44236;48.098;11.582;2022-07-29T04:21:39;25.90;48.00
41644;DHT22;44236;48.098;11.582;2022-07-29T04:24:04;25.90;47.90
41644;DHT22;44236;48.098;11.582;2022-07-29T04:26:30;25.80;47.80
41644;DHT22;44236;48.098;11.582;2022-07-29T04:28:56;25.80;47.90
41644;DHT22;44236;48.098;11.582;2022-07-29T04:31:21;25.80;47.90
41644;DHT22;44236;48.098;11.582;2022-07-29T04:33:47;25.80;48.00
41644;DHT22;44236;48.098;11.582;2022-07-29T04:36:13;25.80;48.00
41644;DHT22;44236;48.098;11.582;2022-07-29T04:38:39;25.80;48.00
41644;DHT22;44236;48.098;11.582;2022-07-29T04:41:05;25.80;48.10
41644;DHT22;44236;48.098;11.582;2022-07-29T04:43:32;25.80;48.10
41644;DHT22;44236;48.098;11.582;2022-07-29T04:45:58;25.80;48.20
41644;DHT22;44236;48.098;11.582;2022-07-29T04:48:24;25.80;48.30
41644;DHT22;44236;48.098;11.582;2022-07-29T04:50:50;25.80;48.40
41644;DHT22;44236;48.098;11.582;2022-07-29T04:53:15;25.80;48.50
41644;DHT22;44236;48.098;11.582;2022-07-29T04:55:41;25.80;48.50
41644;DHT22;44236;48.098;11.582;2022-07-29T04:58:06;25.80;48.50
41644;DHT22;44236;48.098;11.582;2022-07-29T05:00:33;25.70;48.30
41644;DHT22;44236;48.098;11.582;2022-07-29T05:02:59;25.70;48.30
41644;DHT22;44236;48.098;11.582;2022-07-29T05:05:25;25.70;48.30
41644;DHT22;44236;48.098;11.582;2022-07-29T05:07:50;25.70;48.30
41644;DHT22;44236;48.098;11.582;2022-07-29T05:10:16;25.70;48.30
41644;DHT22;44236;48.098;11.582;2022-07-29T05:12:42;25.70;48.40
41644;DHT22;44236;48.098;11.582;2022-07-29T05:15:08;25.70;48.50
41644;DHT22;44236;48.098;11.582;2022-07-29T05:17:34;25.60;48.40
41644;DHT22;44236;48.098;11.582;2022-07-29T05:19:59;25.60;48.50
41644;DHT22;44236;48.098;11.582;2022-07-29T05:22:25;25.60;48.60
41644;DHT22;44236;48.098;11.582;2022-07-29T05:24:50;25.70;48.70
41644;DHT22;44236;48.098;11.582;2022-07-29T05:27:16;25.70;48.80
41644;DHT22;44236;48.098;11.582;2022-07-29T05:29:42;25.60;48.80
41644;DHT22;44236;48.098;11.582;2022-07-29T05:32:07;25.60;48.80
41644;DHT22;44236;48.098;11.582;2022-07-29T05:34:33;25.60;48.40
41644;DHT22;44236;48.098;11.582;2022-07-29T05:36:59;25.60;48.80
41644;DHT22;44236;48.098;11.582;2022-07-29T05:39:25;25.60;48.90
41644;DHT22;44236;48.098;11.582;2022-07-29T05:41:50;25.60;49.00
41644;DHT22;44236;48.098;11.582;2022-07-29T05:44:16;25.60;49.10
41644;DHT22;44236;48.098;11.582;2022-07-29T05:46:42;25.60;49.10
41644;DHT22;44236;48.098;11.582;2022-07-29T05:49:08;25.60;49.10
41644;DHT22;44236;48.098;11.582;2022-07-29T05:51:33;25.60;49.20
41644;DHT22;44236;48.098;11.582;2022-07-29T05:53:59;25.60;49.10
41644;DHT22;44236;48.098;11.582;2022-07-29T05:56:25;25.60;49.20
41644;DHT22;44236;48.098;11.582;2022-07-29T05:58:51;25.60;49.20
41644;DHT22;44236;48.098;11.582;2022-07-29T06:01:17;25.60;49.20
41644;DHT22;44236;48.098;11.582;2022-07-29T06:03:43;25.60;49.20
41644;DHT22;44236;48.098;11.582;2022-07-29T06:06:09;25.60;49.20
41644;DHT22;44236;48.098;11.582;2022-07-29T06:08:35;25.60;49.20
41644;DHT22;44236;48.098;11.582;2022-07-29T06:11:02;25.60;49.40
41644;DHT22;44236;48.098;11.582;2022-07-29T06:13:28;25.60;49.60
41644;DHT22;44236;48.098;11.582;2022-07-29T06:15:54;25.60;49.70
41644;DHT22;44236;48.098;11.582;2022-07-29T06:18:19;25.60;49.80
41644;DHT22;44236;48.098;11.582;2022-07-29T06:20:46;25.60;49.70
41644;DHT22;44236;48.098;11.582;2022-07-29T06:23:11;25.60;49.60
41644;DHT22;44236;48.098;11.582;2022-07-29T06:25:39;25.60;49.60
41644;DHT22;44236;48.098;11.582;2022-07-29T06:28:04;25.60;49.60
41644;DHT22;44236;48.098;11.582;2022-07-29T06:30:30;25.60;49.60
41644;DHT22;44236;48.098;11.582;2022-07-29T06:32:56;25.70;49.70
41644;DHT22;44236;48.098;11.582;2022-07-29T06:35:21;25.60;49.70
41644;DHT22;44236;48.098;11.582;2022-07-29T06:37:47;25.60;49.60
41644;DHT22;44236;48.098;11.582;2022-07-29T06:40:13;25.60;49.60
41644;DHT22;44236;48.098;11.582;2022-07-29T06:42:57;25.60;49.80
41644;DHT22;44236;48.098;11.582;2022-07-29T06:45:22;25.70;49.80
41644;DHT22;44236;48.098;11.582;2022-07-29T06:47:49;25.70;49.80
41644;DHT22;44236;48.098;11.582;2022-07-29T06:50:15;25.70;49.90
41644;DHT22;44236;48.098;11.582;2022-07-29T06:52:41;25.60;49.80
41644;DHT22;44236;48.098;11.582;2022-07-29T06:55:07;25.70;50.00
41644;DHT22;44236;48.098;11.582;2022-07-29T06:57:33;25.60;50.10
41644;DHT22;44236;48.098;11.582;2022-07-29T06:59:59;25.70;50.20
41644;DHT22;44236;48.098;11.582;2022-07-29T07:02:25;25.70;50.30
41644;DHT22;44236;48.098;11.582;2022-07-29T07:04:51;25.70;50.30
41644;DHT22;44236;48.098;11.582;2022-07-29T07:07:17;25.70;50.30
41644;DHT22;44236;48.098;11.582;2022-07-29T07:09:43;25.70;50.30
41644;DHT22;44236;48.098;11.582;2022-07-29T07:12:08;25.70;50.30
41644;DHT22;44236;48.098;11.582;2022-07-29T07:14:34;25.60;50.30
41644;DHT22;44236;48.098;11.582;2022-07-29T07:17:00;25.70;50.40
41644;DHT22;44236;48.098;11.582;2022-07-29T07:19:26;25.60;50.30
41644;DHT22;44236;48.098;11.582;2022-07-29T07:21:55;25.70;50.50
41644;DHT22;44236;48.098;11.582;2022-07-29T07:24:20;25.70;50.60
41644;DHT22;44236;48.098;11.582;2022-07-29T07:26:46;25.70;50.60
41644;DHT22;44236;48.098;11.582;2022-07-29T07:29:12;25.70;50.60
41644;DHT22;44236;48.098;11.582;2022-07-29T07:31:38;25.70;50.60
41644;DHT22;44236;48.098;11.582;2022-07-29T07:34:04;25.70;50.60
41644;DHT22;44236;48.098;11.582;2022-07-29T07:36:30;25.70;50.70
41644;DHT22;44236;48.098;11.582;2022-07-29T07:38:55;25.70;50.70
41644;DHT22;44236;48.098;11.582;2022-07-29T07:41:21;25.70;50.70
41644;DHT22;44236;48.098;11.582;2022-07-29T07:43:47;25.70;50.70
41644;DHT22;44236;48.098;11.582;2022-07-29T07:46:13;25.70;50.70
41644;DHT22;44236;48.098;11.582;2022-07-29T07:48:40;25.70;50.70
41644;DHT22;44236;48.098;11.582;2022-07-29T07:51:05;25.70;50.70
41644;DHT22;44236;48.098;11.582;2022-07-29T07:53:32;25.70;50.70
41644;DHT22;44236;48.098;11.582;2022-07-29T07:55:58;25.70;50.80
41644;DHT22;44236;48.098;11.582;2022-07-29T07:58:23;25.70;51.00
41644;DHT22;44236;48.098;11.582;2022-07-29T08:00:49;25.70;51.10
41644;DHT22;44236;48.098;11.582;2022-07-29T08:03:15;25.70;51.20
41644;DHT22;44236;48.098;11.582;2022-07-29T08:05:40;25.70;51.40
41644;DHT22;44236;48.098;11.582;2022-07-29T08:08:07;25.70;51.30
41644;DHT22;44236;48.098;11.582;2022-07-29T08:10:32;25.70;51.40
41644;DHT22;44236;48.098;11.582;2022-07-29T08:13:17;25.80;51.50
41644;DHT22;44236;48.098;11.582;2022-07-29T08:15:43;25.80;51.60
41644;DHT22;44236;48.098;11.582;2022-07-29T08:18:10;25.80;51.60
41644;DHT22;44236;48.098;11.582;2022-07-29T08:20:37;25.80;51.60
41644;DHT22;44236;48.098;11.582;2022-07-29T08:23:05;25.80;51.50
41644;DHT22;44236;48.098;11.582;2022-07-29T08:25:32;25.80;51.50
41644;DHT22;44236;48.098;11.582;2022-07-29T08:27:58;25.80;51.50
41644;DHT22;44236;48.098;11.582;2022-07-29T08:30:24;25.80;51.40
41644;DHT22;44236;48.098;11.582;2022-07-29T08:32:50;25.80;51.40
41644;DHT22;44236;48.098;11.582;2022-07-29T08:35:19;25.80;51.50
41644;DHT22;44236;48.098;11.582;2022-07-29T08:37:45;25.80;51.50
41644;DHT22;44236;48.098;11.582;2022-07-29T08:40:11;25.80;51.40
41644;DHT22;44236;48.098;11.582;2022-07-29T08:42:37;25.80;51.40
41644;DHT22;44236;48.098;11.582;2022-07-29T08:45:04;25.80;51.40
41644;DHT22;44236;48.098;11.582;2022-07-29T08:47:30;25.80;51.40
41644;DHT22;44236;48.098;11.582;2022-07-29T08:49:55;25.90;51.50
41644;DHT22;44236;48.098;11.582;2022-07-29T08:52:24;25.80;51.50
41644;DHT22;44236;48.098;11.582;2022-07-29T08:54:52;25.80;51.40
41644;DHT22;44236;48.098;11.582;2022-07-29T08:57:19;25.80;51.40
41644;DHT22;44236;48.098;11.582;2022-07-29T08:59:47;25.90;51.60
41644;DHT22;44236;48.098;11.582;2022-07-29T09:02:22;25.90;51.60
41644;DHT22;44236;48.098;11.582;2022-07-29T09:04:49;25.90;51.60
41644;DHT22;44236;48.098;11.582;2022-07-29T09:07:16;25.90;51.70
41644;DHT22;44236;48.098;11.582;2022-07-29T09:09:43;25.90;51.60
41644;DHT22;44236;48.098;11.582;2022-07-29T09:12:12;25.90;51.70
41644;DHT22;44236;48.098;11.582;2022-07-29T09:14:38;25.90;51.40
41644;DHT22;44236;48.098;11.582;2022-07-29T09:17:04;25.90;51.70
41644;DHT22;44236;48.098;11.582;2022-07-29T09:19:32;25.90;51.70
41644;DHT22;44236;48.098;11.582;2022-07-29T09:22:00;25.90;51.70
41644;DHT22;44236;48.098;11.582;2022-07-29T09:24:44;25.90;51.70
41644;DHT22;44236;48.098;11.582;2022-07-29T09:27:23;26.10;51.80
41644;DHT22;44236;48.098;11.582;2022-07-29T09:32:27;25.90;51.80
41644;DHT22;44236;48.098;11.582;2022-07-29T09:35:22;25.90;51.80
41644;DHT22;44236;48.098;11.582;2022-07-29T09:37:48;25.90;51.70
41644;DHT22;44236;48.098;11.582;2022-07-29T09:40:20;26.00;51.80
41644;DHT22;44236;48.098;11.582;2022-07-29T09:42:46;26.00;51.80
41644;DHT22;44236;48.098;11.582;2022-07-29T09:45:12;26.00;51.80
41644;DHT22;44236;48.098;11.582;2022-07-29T09:47:47;26.00;51.80
41644;DHT22;44236;48.098;11.582;2022-07-29T09:50:15;26.00;51.70
41644;DHT22;44236;48.098;11.582;2022-07-29T09:52:46;26.00;51.80
41644;DHT22;44236;48.098;11.582;2022-07-29T09:55:13;26.00;51.80
41644;DHT22;44236;48.098;11.582;2022-07-29T09:57:38;26.00;51.80
41644;DHT22;44236;48.098;11.582;2022-07-29T10:00:07;26.00;51.90
41644;DHT22;44236;48.098;11.582;2022-07-29T10:02:39;26.00;52.00
41644;DHT22;44236;48.098;11.582;2022-07-29T10:05:15;26.00;52.00
41644;DHT22;44236;48.098;11.582;2022-07-29T10:07:55;26.00;51.90
41644;DHT22;44236;48.098;11.582;2022-07-29T10:10:35;26.00;51.90
41644;DHT22;44236;48.098;11.582;2022-07-29T10:13:07;26.00;51.90
41644;DHT22;44236;48.098;11.582;2022-07-29T10:15:37;26.00;51.90
41644;DHT22;44236;48.098;11.582;2022-07-29T10:18:04;26.00;51.90
41644;DHT22;44236;48.098;11.582;2022-07-29T10:20:31;26.00;51.90
41644;DHT22;44236;48.098;11.582;2022-07-29T10:22:57;26.00;51.80
41644;DHT22;44236;48.098;11.582;2022-07-29T10:25:24;26.00;51.90
41644;DHT22;44236;48.098;11.582;2022-07-29T10:27:51;26.00;52.00
41644;DHT22;44236;48.098;11.582;2022-07-29T10:30:17;26.00;51.90
41644;DHT22;44236;48.098;11.582;2022-07-29T10:33:11;26.00;51.90
41644;DHT22;44236;48.098;11.582;2022-07-29T10:38:42;26.00;51.90
41644;DHT22;44236;48.098;11.582;2022-07-29T10:44:05;26.00;52.00
41644;DHT22;44236;48.098;11.582;2022-07-29T10:46:40;26.00;51.90
41644;DHT22;44236;48.098;11.582;2022-07-29T10:51:57;26.00;51.80
41644;DHT22;44236;48.098;11.582;2022-07-29T10:54:47;26.10;51.80
41644;DHT22;44236;48.098;11.582;2022-07-29T10:57:21;26.00;51.70
41644;DHT22;44236;48.098;11.582;2022-07-29T10:59:48;26.00;51.80
41644;DHT22;44236;48.098;11.582;2022-07-29T11:05:03;26.00;51.80
41644;DHT22;44236;48.098;11.582;2022-07-29T11:07:29;26.10;51.90
41644;DHT22;44236;48.098;11.582;2022-07-29T11:15:12;26.10;51.80
41644;DHT22;44236;48.098;11.582;2022-07-29T11:20:44;26.10;51.80
41644;DHT22;44236;48.098;11.582;2022-07-29T11:23:28;26.10;51.70
41644;DHT22;44236;48.098;11.582;2022-07-29T11:39:33;26.30;51.00
41644;DHT22;44236;48.098;11.582;2022-07-29T11:47:46;26.30;51.30
41644;DHT22;44236;48.098;11.582;2022-07-29T11:50:34;26.40;51.50
41644;DHT22;44236;48.098;11.582;2022-07-29T11:53:02;26.50;51.10
41644;DHT22;44236;48.098;11.582;2022-07-29T11:55:28;26.60;50.70
41644;DHT22;44236;48.098;11.582;2022-07-29T11:57:57;26.70;50.50
41644;DHT22;44236;48.098;11.582;2022-07-29T12:00:37;26.80;50.50
41644;DHT22;44236;48.098;11.582;2022-07-29T12:03:09;26.90;50.50
41644;DHT22;44236;48.098;11.582;2022-07-29T12:05:44;27.00;50.20
41644;DHT22;44236;48.098;11.582;2022-07-29T12:08:14;27.10;50.10
41644;DHT22;44236;48.098;11.582;2022-07-29T12:10:41;27.20;51.90
41644;DHT22;44236;48.098;11.582;2022-07-29T12:13:07;27.30;52.40
41644;DHT22;44236;48.098;11.582;2022-07-29T12:15:33;27.50;50.80
41644;DHT22;44236;48.098;11.582;2022-07-29T12:18:13;27.60;50.20
41644;DHT22;44236;48.098;11.582;2022-07-29T12:20:39;27.70;49.80
41644;DHT22;44236;48.098;11.582;2022-07-29T12:23:09;27.80;49.50
41644;DHT22;44236;48.098;11.582;2022-07-29T12:25:38;27.90;50.80
41644;DHT22;44236;48.098;11.582;2022-07-29T12:28:09;28.00;50.00
41644;DHT22;44236;48.098;11.582;2022-07-29T12:30:41;28.10;49.50
41644;DHT22;44236;48.098;11.582;2022-07-29T12:35:41;28.30;49.00
41644;DHT22;44236;48.098;11.582;2022-07-29T12:38:09;28.40;48.80
41644;DHT22;44236;48.098;11.582;2022-07-29T12:40:35;28.40;48.50
41644;DHT22;44236;48.098;11.582;2022-07-29T12:43:12;28.50;48.30
41644;DHT22;44236;48.098;11.582;2022-07-29T12:45:40;28.60;48.20
41644;DHT22;44236;48.098;11.582;2022-07-29T12:48:06;28.60;47.90
41644;DHT22;44236;48.098;11.582;2022-07-29T12:50:35;28.70;48.30
41644;DHT22;44236;48.098;11.582;2022-07-29T12:53:13;28.80;47.70
41644;DHT22;44236;48.098;11.582;2022-07-29T12:55:44;28.80;47.60
41644;DHT22;44236;48.098;11.582;2022-07-29T12:58:25;28.90;47.40
41644;DHT22;44236;48.098;11.582;2022-07-29T13:03:55;29.10;47.20
41644;DHT22;44236;48.098;11.582;2022-07-29T13:06:45;29.10;47.10
41644;DHT22;44236;48.098;11.582;2022-07-29T13:09:15;29.20;46.90
41644;DHT22;44236;48.098;11.582;2022-07-29T13:11:43;29.30;46.80
41644;DHT22;44236;48.098;11.582;2022-07-29T13:14:12;29.30;46.70
41644;DHT22;44236;48.098;11.582;2022-07-29T13:17:02;29.40;46.60
41644;DHT22;44236;48.098;11.582;2022-07-29T13:19:49;29.40;46.50
41644;DHT22;44236;48.098;11.582;2022-07-29T13:22:17;29.50;46.40
41644;DHT22;44236;48.098;11.582;2022-07-29T13:25:02;29.50;46.30
41644;DHT22;44236;48.098;11.582;2022-07-29T13:27:32;29.60;46.00
41644;DHT22;44236;48.098;11.582;2022-07-29T13:29:59;29.70;46.00
41644;DHT22;44236;48.098;11.582;2022-07-29T13:32:27;29.70;45.90
41644;DHT22;44236;48.098;11.582;2022-07-29T13:34:53;29.70;45.90
41644;DHT22;44236;48.098;11.582;2022-07-29T13:37:19;29.70;45.70
41644;DHT22;44236;48.098;11.582;2022-07-29T13:39:45;29.80;45.50
41644;DHT22;44236;48.098;11.582;2022-07-29T13:42:12;29.80;45.40
41644;DHT22;44236;48.098;11.582;2022-07-29T13:44:42;29.80;45.30
41644;DHT22;44236;48.098;11.582;2022-07-29T13:47:07;29.90;45.20
41644;DHT22;44236;48.098;11.582;2022-07-29T13:49:34;30.00;45.30
41644;DHT22;44236;48.098;11.582;2022-07-29T13:52:00;29.90;45.20
41644;DHT22;44236;48.098;11.582;2022-07-29T13:54:25;30.00;44.90
41644;DHT22;44236;48.098;11.582;2022-07-29T13:56:51;30.00;44.80
41644;DHT22;44236;48.098;11.582;2022-07-29T13:59:17;30.00;44.60
41644;DHT22;44236;48.098;11.582;2022-07-29T14:01:43;30.00;44.50
41644;DHT22;44236;48.098;11.582;2022-07-29T14:04:09;30.00;44.40
41644;DHT22;44236;48.098;11.582;2022-07-29T14:06:35;30.10;44.60
41644;DHT22;44236;48.098;11.582;2022-07-29T14:09:01;30.10;44.60
41644;DHT22;44236;48.098;11.582;2022-07-29T14:11:27;30.10;44.40
41644;DHT22;44236;48.098;11.582;2022-07-29T14:13:52;30.10;44.50
41644;DHT22;44236;48.098;11.582;2022-07-29T14:16:18;30.10;44.30
41644;DHT22;44236;48.098;11.582;2022-07-29T14:18:44;30.10;43.90
41644;DHT22;44236;48.098;11.582;2022-07-29T14:21:09;30.10;44.00
41644;DHT22;44236;48.098;11.582;2022-07-29T14:23:36;30.10;44.00
41644;DHT22;44236;48.098;11.582;2022-07-29T14:26:01;30.10;44.00
41644;DHT22;44236;48.098;11.582;2022-07-29T14:28:27;30.10;44.00
41644;DHT22;44236;48.098;11.582;2022-07-29T14:30:53;30.10;44.00
41644;DHT22;44236;48.098;11.582;2022-07-29T14:33:19;30.20;44.10
41644;DHT22;44236;48.098;11.582;2022-07-29T14:35:45;30.20;44.20
41644;DHT22;44236;48.098;11.582;2022-07-29T14:38:11;30.20;43.90
41644;DHT22;44236;48.098;11.582;2022-07-29T14:40:36;30.10;43.90
41644;DHT22;44236;48.098;11.582;2022-07-29T14:43:02;30.20;44.10
41644;DHT22;44236;48.098;11.582;2022-07-29T14:45:28;30.20;44.20
41644;DHT22;44236;48.098;11.582;2022-07-29T14:47:54;30.10;44.50
41644;DHT22;44236;48.098;11.582;2022-07-29T14:50:19;30.20;44.00
41644;DHT22;44236;48.098;11.582;2022-07-29T14:52:45;30.10;43.80
41644;DHT22;44236;48.098;11.582;2022-07-29T14:55:11;30.20;43.70
41644;DHT22;44236;48.098;11.582;2022-07-29T14:57:37;30.10;43.70
41644;DHT22;44236;48.098;11.582;2022-07-29T15:00:06;30.10;43.80
41644;DHT22;44236;48.098;11.582;2022-07-29T15:02:33;30.10;43.70
41644;DHT22;44236;48.098;11.582;2022-07-29T15:04:58;30.10;43.70
41644;DHT22;44236;48.098;11.582;2022-07-29T15:07:24;30.10;43.90
41644;DHT22;44236;48.098;11.582;2022-07-29T15:09:50;30.10;43.80
41644;DHT22;44236;48.098;11.582;2022-07-29T15:12:15;30.10;43.80
41644;DHT22;44236;48.098;11.582;2022-07-29T15:14:41;30.10;44.00
41644;DHT22;44236;48.098;11.582;2022-07-29T15:17:07;30.10;43.90
41644;DHT22;44236;48.098;11.582;2022-07-29T15:19:32;30.00;43.90
41644;DHT22;44236;48.098;11.582;2022-07-29T15:21:58;30.00;43.80
41644;DHT22;44236;48.098;11.582;2022-07-29T15:24:24;30.00;44.00
41644;DHT22;44236;48.098;11.582;2022-07-29T15:26:50;30.00;43.80
41644;DHT22;44236;48.098;11.582;2022-07-29T15:29:15;30.00;43.60
41644;DHT22;44236;48.098;11.582;2022-07-29T15:31:42;30.00;43.50
41644;DHT22;44236;48.098;11.582;2022-07-29T15:34:07;29.90;43.40
41644;DHT22;44236;48.098;11.582;2022-07-29T15:36:34;29.90;43.20
41644;DHT22;44236;48.098;11.582;2022-07-29T15:39:00;29.90;43.30
41644;DHT22;44236;48.098;11.582;2022-07-29T15:41:25;29.90;43.20
41644;DHT22;44236;48.098;11.582;2022-07-29T15:43:51;29.80;43.10
41644;DHT22;44236;48.098;11.582;2022-07-29T15:46:18;29.80;43.00
41644;DHT22;44236;48.098;11.582;2022-07-29T15:49:04;29.80;43.50
41644;DHT22;44236;48.098;11.582;2022-07-29T15:51:30;29.80;43.20
41644;DHT22;44236;48.098;11.582;2022-07-29T15:53:56;29.80;43.50
41644;DHT22;44236;48.098;11.582;2022-07-29T15:56:23;29.80;43.50
41644;DHT22;44236;48.098;11.582;2022-07-29T15:58:48;29.70;43.60
41644;DHT22;44236;48.098;11.582;2022-07-29T16:01:14;29.70;43.70
41644;DHT22;44236;48.098;11.582;2022-07-29T16:03:40;29.20;43.90
41644;DHT22;44236;48.098;11.582;2022-07-29T16:06:06;29.70;44.10
41644;DHT22;44236;48.098;11.582;2022-07-29T16:08:31;29.70;44.20
41644;DHT22;44236;48.098;11.582;2022-07-29T16:10:57;29.70;44.60
41644;DHT22;44236;48.098;11.582;2022-07-29T16:13:23;29.60;44.70
41644;DHT22;44236;48.098;11.582;2022-07-29T16:15:48;29.60;44.70
41644;DHT22;44236;48.098;11.582;2022-07-29T16:18:14;29.60;44.70
41644;DHT22;44236;48.098;11.582;2022-07-29T16:20:40;29.60;44.90
41644;DHT22;44236;48.098;11.582;2022-07-29T16:23:06;29.60;45.00
41644;DHT22;44236;48.098;11.582;2022-07-29T16:25:34;29.50;44.80
41644;DHT22;44236;48.098;11.582;2022-07-29T16:28:00;29.50;45.00